Strona główna
METAR-TAF:

METAR-TAF

Lotnisko :

Port lotniczy Brunei

Brunei, Brunei

Szerokość geograficzna: 04-56N, Długość geograficzna: 114-56E, wysokość: 22 m

Aktualna obserwacja pogody

Raport powstał 33 minut temu, godzina 12:00 UTC
Wiatr 2 kt od północny zachód
Temperatura 30°C
Wilgotność 79%
Ciśnienie 1008 hPa
Widzialność: 8000 m
Mało chmury na wysokości 1500 ft
Przerywane chmury na wysokości 28000 ft

METAR: WBSB 181200Z 31002KT 8000 FEW015 BKN280 30/26 Q1008 NOSIG

czas: 20:33 (12:33 UTC)

Prognoza

Raport powstał 1 godzina i 33 minut temu, godzina 11:00 UTC
Prognoza ważna od 18 godzina 12 UTC do 19 godzina 18 UTC
Wiatr 6 kt od zachodnio-południowy zachód
Widzialność: 8000 m
Mało chmury na wysokości 1600 ft
Stopniowe zmiany
od 19 godzina 03 UTC do 19 godzina 05 UTC
Wiatr 12 kt od zachód
Mało chmury na wysokości 1700 ft

TAF: WBSB 181100Z 1812/1918 24006KT 8000 FEW016 BECMG 1903/1905 28012KT FEW017

Obserwacja i prognoza pogody dla ponad 4000 lotnisk (raport METAR i TAF).

Dostępne stacje oznaczono żółtymi i czerwonymi punktami na mapie.

Najedź kursorem aby zobaczyć nazwę stacji.

Kliknij aby zobaczyć obserwacje i prognozy pogody.

Aby zmienić mapę: kliknij na zielony przycisk z czarnym krzyżykiem, aby powiększyć; na zielony przycisk z myślnikiem, aby pomniejszyć; na zielone strzałki, aby przejść do map sąsiednich.


METAR-TAF: